KLBE

Arnold Palmer Regional Airport

Latrobe, Pennsylvania, USA
METAR KLBE 210655Z AUTO 00000KT 10SM FEW085 14/14 A3017 RMK AO2
Observed Flight Rules
May-21 @ 06:55 UTC (14 minutes ago) Visual Flight Rules
Visibility Clouds
10 miles
  • Few at 8,500' AGL
Temperatures Readings
Current 14°C / 57°F
Dewpoint 14°C / 57°F
Humidity 100%
Altimeter 30.17" Hg
Pressure 1022 hPa
Elevation 361
METAR KLBE 210655Z AUTO 00000KT 10SM FEW085 14/14 A3017 RMK AO2
Observed Flight Rules
May-21 @ 06:55 UTC
(14 minutes ago)
VFR
Clouds
  • Few at 8,500' AGL
Temperature Dewpoint
14°C / 57°F 14°C / 57°F
Humidity Altimeter Pressure
100% 30.17" Hg 1022 hPa